createdAt,value
2023-07-21T00:00:31.163Z,17.95
2023-07-21T00:02:57.606Z,17.57
2023-07-21T00:05:25.459Z,17.63
2023-07-21T00:07:52.159Z,18.55
2023-07-21T00:10:18.583Z,17.73
2023-07-21T00:12:49.129Z,18.46
2023-07-21T00:15:18.347Z,16.71
2023-07-21T00:17:48.257Z,18.19
2023-07-21T00:20:20.872Z,17.66
2023-07-21T00:22:47.371Z,18.05
2023-07-21T00:25:13.819Z,17.53
2023-07-21T00:27:42.570Z,18.35
2023-07-21T00:30:09.857Z,18.29
2023-07-21T00:32:37.021Z,18.30
2023-07-21T00:35:06.384Z,17.68
2023-07-21T00:37:32.921Z,17.42
2023-07-21T00:39:59.647Z,17.10
2023-07-21T00:42:26.249Z,17.54
2023-07-21T00:44:52.643Z,17.20
2023-07-21T00:47:19.147Z,17.66
2023-07-21T00:49:45.748Z,17.21
2023-07-21T00:52:18.536Z,17.96
2023-07-21T00:54:48.700Z,17.74
2023-07-21T00:57:18.794Z,17.88
2023-07-21T00:59:46.562Z,18.02
2023-07-21T01:02:13.119Z,17.88
2023-07-21T01:04:40.767Z,17.74
2023-07-21T01:07:10.481Z,17.24
2023-07-21T01:09:39.502Z,17.75
2023-07-21T01:12:07.439Z,17.68
2023-07-21T01:14:38.380Z,16.56
2023-07-21T01:17:08.241Z,16.74
2023-07-21T01:19:37.409Z,16.22
2023-07-21T01:22:22.136Z,17.80
2023-07-21T01:25:08.582Z,17.88
2023-07-21T01:27:40.931Z,17.79
2023-07-21T01:30:15.799Z,16.67
2023-07-21T01:32:45.259Z,16.93
2023-07-21T01:35:14.137Z,17.28
2023-07-21T01:37:42.178Z,15.73
2023-07-21T01:40:11.853Z,16.99
2023-07-21T01:42:38.685Z,17.08
2023-07-21T01:45:06.065Z,17.15
2023-07-21T01:47:36.587Z,17.47
2023-07-21T01:50:10.662Z,17.42
2023-07-21T01:52:38.163Z,17.63
2023-07-21T01:55:08.034Z,17.71
2023-07-21T01:57:44.890Z,17.79
2023-07-21T02:00:13.792Z,16.19
2023-07-21T02:02:53.953Z,17.41
2023-07-21T02:05:22.160Z,17.12
2023-07-21T02:07:49.156Z,16.71
2023-07-21T02:10:15.606Z,16.39
2023-07-21T02:12:42.186Z,14.99
2023-07-21T02:15:09.073Z,16.20
2023-07-21T02:17:36.010Z,16.06
2023-07-21T02:20:09.763Z,16.50
2023-07-21T02:22:41.483Z,16.55
2023-07-21T02:25:10.270Z,15.56
2023-07-21T02:27:37.404Z,15.63
2023-07-21T02:30:05.058Z,16.23
2023-07-21T02:32:31.636Z,16.43
2023-07-21T02:34:59.710Z,16.35
2023-07-21T02:37:26.959Z,17.23
2023-07-21T02:39:53.505Z,16.77
2023-07-21T02:42:20.085Z,17.74
2023-07-21T02:44:46.605Z,16.82
2023-07-21T02:47:16.129Z,17.63
2023-07-21T02:49:42.528Z,17.05
2023-07-21T02:52:09.215Z,17.08
2023-07-21T02:54:35.678Z,17.64
2023-07-21T02:57:02.794Z,16.98
2023-07-21T02:59:29.734Z,16.47
2023-07-21T03:01:57.546Z,17.01
2023-07-21T03:04:26.746Z,16.62
2023-07-21T03:06:53.452Z,17.64
2023-07-21T03:09:20.234Z,17.45
2023-07-21T03:11:46.706Z,17.51
2023-07-21T03:14:13.128Z,17.64
2023-07-21T03:16:40.460Z,17.65
2023-07-21T03:19:06.899Z,17.80
2023-07-21T03:21:33.373Z,16.01
2023-07-21T03:23:59.759Z,17.08
2023-07-21T03:26:29.020Z,16.29
2023-07-21T03:28:56.686Z,16.78
2023-07-21T03:31:23.378Z,17.36
2023-07-21T03:33:49.950Z,16.67
2023-07-21T03:36:16.443Z,17.46
2023-07-21T03:38:42.918Z,17.71
2023-07-21T03:41:10.518Z,17.74
2023-07-21T03:43:38.265Z,16.68
2023-07-21T03:46:06.276Z,16.82
2023-07-21T03:48:34.065Z,16.71
2023-07-21T03:51:05.963Z,17.68
2023-07-21T03:53:36.870Z,15.54
2023-07-21T03:56:04.601Z,16.30
2023-07-21T03:58:31.146Z,16.16
2023-07-21T04:00:59.633Z,16.48
2023-07-21T04:03:26.492Z,16.40
2023-07-21T04:05:53.428Z,16.20
2023-07-21T04:08:20.344Z,15.96
2023-07-21T04:10:47.349Z,16.96
2023-07-21T04:13:13.961Z,17.40
2023-07-21T04:15:40.727Z,17.43
2023-07-21T04:18:07.244Z,17.22
2023-07-21T04:20:34.029Z,16.42
2023-07-21T04:25:36.722Z,16.20
2023-07-21T04:28:06.675Z,16.09
2023-07-21T04:30:33.111Z,15.98
2023-07-21T04:32:59.700Z,16.99
2023-07-21T04:35:26.214Z,16.44
2023-07-21T04:37:52.611Z,17.17
2023-07-21T04:40:21.245Z,15.49
2023-07-21T04:42:48.927Z,15.87
2023-07-21T04:45:15.397Z,16.90
2023-07-21T04:47:42.049Z,16.48
2023-07-21T04:50:09.722Z,15.65
2023-07-21T04:52:38.133Z,15.51
2023-07-21T04:55:06.664Z,16.38
2023-07-21T04:57:33.592Z,15.71
2023-07-21T05:00:00.406Z,14.75
2023-07-21T05:02:29.702Z,14.99
2023-07-21T05:04:58.713Z,15.46
2023-07-21T05:07:25.525Z,15.34
2023-07-21T05:09:52.347Z,16.27
2023-07-21T05:12:19.378Z,16.60
2023-07-21T05:14:46.025Z,16.69
2023-07-21T05:17:12.913Z,16.69
2023-07-21T05:19:39.548Z,16.49
2023-07-21T05:22:06.452Z,15.50
2023-07-21T05:24:32.932Z,14.81
2023-07-21T05:26:59.406Z,14.94
2023-07-21T05:29:25.845Z,15.63
2023-07-21T05:31:53.308Z,15.97
2023-07-21T05:34:22.160Z,15.51
2023-07-21T05:36:48.838Z,16.46
2023-07-21T05:39:15.454Z,15.54
2023-07-21T05:41:42.106Z,16.64
2023-07-21T05:44:10.123Z,16.96
2023-07-21T05:46:40.490Z,16.80
2023-07-21T05:49:07.643Z,16.56
2023-07-21T05:51:34.487Z,16.64
2023-07-21T05:54:01.407Z,16.74
2023-07-21T05:56:27.961Z,16.10
2023-07-21T05:58:54.635Z,15.82
2023-07-21T06:01:22.133Z,16.22
2023-07-21T06:03:48.664Z,16.03
2023-07-21T06:06:15.090Z,16.76
2023-07-21T06:08:41.635Z,16.84
2023-07-21T06:11:08.215Z,17.05
2023-07-21T06:13:34.588Z,16.62
2023-07-21T06:16:01.056Z,17.29
2023-07-21T06:18:27.445Z,17.21
2023-07-21T06:20:54.114Z,17.47
2023-07-21T06:23:21.069Z,17.42
2023-07-21T06:25:47.593Z,17.62
2023-07-21T06:28:14.026Z,17.78
2023-07-21T06:30:40.487Z,17.66
2023-07-21T06:33:07.642Z,17.68
2023-07-21T06:35:34.945Z,17.14
2023-07-21T06:38:01.994Z,17.58
2023-07-21T06:40:28.393Z,17.92
2023-07-21T06:42:54.793Z,17.31
2023-07-21T06:45:21.320Z,17.72
2023-07-21T06:47:47.765Z,17.87
2023-07-21T06:50:14.361Z,17.14
2023-07-21T06:52:40.826Z,17.91
2023-07-21T06:55:07.539Z,17.34
2023-07-21T06:57:33.947Z,16.94
2023-07-21T07:00:00.433Z,17.09
2023-07-21T07:02:26.857Z,16.33
2023-07-21T07:04:54.712Z,17.49
2023-07-21T07:07:21.212Z,16.26
2023-07-21T07:09:47.591Z,17.15
2023-07-21T07:12:15.188Z,16.55
2023-07-21T07:14:41.915Z,16.55
2023-07-21T07:17:08.310Z,16.64
2023-07-21T07:19:34.682Z,16.66
2023-07-21T07:22:01.278Z,17.15
2023-07-21T07:24:27.954Z,16.88
2023-07-21T07:26:55.242Z,16.58
2023-07-21T07:29:22.187Z,17.59
2023-07-21T07:31:50.328Z,17.46
2023-07-21T07:34:16.842Z,17.70
2023-07-21T07:36:43.277Z,17.21
2023-07-21T07:39:09.870Z,17.78
2023-07-21T07:41:36.270Z,17.52
2023-07-21T07:44:02.714Z,17.45
2023-07-21T07:46:29.188Z,17.52
2023-07-21T07:48:56.585Z,18.33
2023-07-21T07:51:24.033Z,19.29
2023-07-21T07:53:51.136Z,19.52
2023-07-21T07:56:17.567Z,18.58
2023-07-21T07:58:44.142Z,18.94
2023-07-21T08:01:14.236Z,18.02
2023-07-21T08:03:45.305Z,18.14
2023-07-21T08:06:12.918Z,18.10
2023-07-21T08:08:39.590Z,18.41
2023-07-21T08:11:07.432Z,18.97
2023-07-21T08:13:34.404Z,18.33
2023-07-21T08:16:01.597Z,19.61
2023-07-21T08:18:28.258Z,19.73
2023-07-21T08:20:54.753Z,18.69
2023-07-21T08:23:29.445Z,18.07
2023-07-21T08:25:58.109Z,18.09
2023-07-21T08:28:24.549Z,18.92
2023-07-21T08:30:57.503Z,19.57
2023-07-21T08:33:25.199Z,18.06
2023-07-21T08:35:51.638Z,19.44
2023-07-21T08:38:18.084Z,20.12
2023-07-21T08:40:50.148Z,20.08
2023-07-21T08:43:17.180Z,18.51
2023-07-21T08:45:44.753Z,19.17
2023-07-21T08:48:11.479Z,18.72
2023-07-21T08:50:39.882Z,18.34
2023-07-21T08:53:06.333Z,18.55
2023-07-21T08:55:34.470Z,18.71
2023-07-21T08:58:01.622Z,19.20
2023-07-21T09:00:28.867Z,18.96
2023-07-21T09:03:01.270Z,18.62
2023-07-21T09:05:27.854Z,18.11
2023-07-21T09:07:54.463Z,18.71
2023-07-21T09:10:31.158Z,19.05
2023-07-21T09:12:57.817Z,18.84
2023-07-21T09:15:24.288Z,19.34
2023-07-21T09:17:50.910Z,19.41
2023-07-21T09:20:19.007Z,18.55
2023-07-21T09:22:49.623Z,18.52
2023-07-21T09:25:23.299Z,18.06
2023-07-21T09:27:54.964Z,18.55
2023-07-21T09:30:21.687Z,18.36
2023-07-21T09:32:48.148Z,18.35
2023-07-21T09:35:15.061Z,18.63
2023-07-21T09:37:42.198Z,18.60
2023-07-21T09:40:12.450Z,18.19
2023-07-21T09:42:40.272Z,18.38
2023-07-21T09:45:07.406Z,18.66
2023-07-21T09:47:34.178Z,17.78
2023-07-21T09:50:01.010Z,16.74
2023-07-21T09:52:28.528Z,18.24
2023-07-21T09:55:04.644Z,17.40
2023-07-21T09:57:35.815Z,18.45
2023-07-21T10:00:10.845Z,18.33
2023-07-21T10:02:37.742Z,18.46
2023-07-21T10:05:05.961Z,17.20
2023-07-21T10:07:34.188Z,18.42
2023-07-21T10:10:02.247Z,18.62
2023-07-21T10:12:47.936Z,19.48
2023-07-21T10:15:16.379Z,19.41
2023-07-21T10:17:44.637Z,20.01
2023-07-21T10:20:13.070Z,18.72
2023-07-21T10:22:39.483Z,19.72
2023-07-21T10:25:06.165Z,19.07
2023-07-21T10:27:32.619Z,18.19
2023-07-21T10:30:21.808Z,18.28
2023-07-21T10:32:48.326Z,18.28
2023-07-21T10:35:42.641Z,18.46
2023-07-21T10:38:30.430Z,19.01
2023-07-21T10:40:56.910Z,19.11
2023-07-21T10:43:23.314Z,18.93
2023-07-21T10:45:54.950Z,18.94
2023-07-21T10:48:23.379Z,19.39
2023-07-21T10:51:00.846Z,19.26
2023-07-21T10:53:27.479Z,18.94
2023-07-21T10:55:54.673Z,18.67
2023-07-21T10:58:21.927Z,19.55
2023-07-21T11:00:52.513Z,18.77
2023-07-21T11:03:19.280Z,18.24
2023-07-21T11:05:46.048Z,19.51
2023-07-21T11:08:14.359Z,20.30
2023-07-21T11:10:43.214Z,20.13
2023-07-21T11:13:09.955Z,19.47
2023-07-21T11:15:36.482Z,19.00
2023-07-21T11:18:05.376Z,19.21
2023-07-21T11:20:31.960Z,19.88
2023-07-21T11:22:59.970Z,19.38
2023-07-21T11:25:26.397Z,21.22
2023-07-21T11:27:53.711Z,21.37
2023-07-21T11:30:20.318Z,20.88
2023-07-21T11:32:47.698Z,20.37
2023-07-21T11:35:14.503Z,21.62
2023-07-21T11:37:46.211Z,21.93
2023-07-21T11:40:24.127Z,20.88
2023-07-21T11:42:50.663Z,21.32
2023-07-21T11:45:38.571Z,22.18
2023-07-21T11:48:19.621Z,22.08
2023-07-21T11:50:53.170Z,23.29
2023-07-21T11:53:21.704Z,23.58
2023-07-21T11:55:48.100Z,22.49
2023-07-21T11:58:14.669Z,22.13
2023-07-21T12:00:43.183Z,21.98
2023-07-21T12:03:11.460Z,21.98
2023-07-21T12:05:38.008Z,21.97
2023-07-21T12:08:05.039Z,22.90
2023-07-21T12:10:31.458Z,24.07
2023-07-21T12:12:58.454Z,23.01
2023-07-21T12:15:25.022Z,23.23
2023-07-21T12:17:51.499Z,24.08
2023-07-21T12:20:18.486Z,23.63
2023-07-21T12:22:44.993Z,24.66
2023-07-21T12:25:11.558Z,24.82
2023-07-21T12:27:38.179Z,24.63
2023-07-21T12:30:10.827Z,23.43
2023-07-21T12:32:37.660Z,23.65
2023-07-21T12:35:06.135Z,21.93
2023-07-21T12:37:33.773Z,22.28
2023-07-21T12:40:00.385Z,22.15
2023-07-21T12:42:29.462Z,23.82
2023-07-21T12:44:55.997Z,22.87
2023-07-21T12:47:22.407Z,22.56
2023-07-21T12:49:48.885Z,23.09
2023-07-21T12:52:15.310Z,23.85
2023-07-21T12:54:41.718Z,23.01
2023-07-21T12:57:08.120Z,23.11
2023-07-21T12:59:34.519Z,23.81
2023-07-21T13:02:01.112Z,23.78
2023-07-21T13:04:27.813Z,23.24
2023-07-21T13:06:55.145Z,22.27
2023-07-21T13:09:22.012Z,22.48
2023-07-21T13:11:49.144Z,21.02
2023-07-21T13:14:16.556Z,21.99
2023-07-21T13:16:43.106Z,21.71
2023-07-21T13:19:10.465Z,20.72
2023-07-21T13:21:37.023Z,23.28
2023-07-21T13:24:04.217Z,22.53
2023-07-21T13:26:30.771Z,23.25
2023-07-21T13:28:57.224Z,23.71
2023-07-21T13:31:23.674Z,24.57
2023-07-21T13:33:51.617Z,24.48
2023-07-21T13:38:44.338Z,22.94
2023-07-21T13:41:11.738Z,23.82
2023-07-21T13:43:38.325Z,24.26
2023-07-21T13:46:04.808Z,23.59
2023-07-21T13:48:31.430Z,25.70
2023-07-21T13:50:57.882Z,26.12
2023-07-21T13:53:24.287Z,26.11
2023-07-21T13:55:50.741Z,26.11
2023-07-21T13:58:17.592Z,26.32
2023-07-21T14:00:43.969Z,25.54
2023-07-21T14:03:10.466Z,25.80
2023-07-21T14:05:37.047Z,23.50
2023-07-21T14:08:03.640Z,26.12
2023-07-21T14:10:30.128Z,24.05
2023-07-21T14:12:57.054Z,23.30
2023-07-21T14:15:23.520Z,22.19
2023-07-21T14:17:50.599Z,23.32
2023-07-21T14:20:17.960Z,23.08
2023-07-21T14:22:44.682Z,21.24
2023-07-21T14:25:11.964Z,22.01
2023-07-21T14:27:38.695Z,22.29
2023-07-21T14:30:08.621Z,21.47
2023-07-21T14:32:35.064Z,22.50
2023-07-21T14:35:01.479Z,22.61
2023-07-21T14:37:27.898Z,22.78
2023-07-21T14:39:54.443Z,21.06
2023-07-21T14:42:21.305Z,21.02
2023-07-21T14:44:48.053Z,21.68
2023-07-21T14:47:14.708Z,22.30
2023-07-21T14:49:41.415Z,23.17
2023-07-21T14:52:10.554Z,22.47
2023-07-21T14:54:37.116Z,21.79
2023-07-21T14:57:03.658Z,20.97
2023-07-21T14:59:30.146Z,21.75
2023-07-21T15:01:58.444Z,22.02
2023-07-21T15:04:26.625Z,20.88
2023-07-21T15:06:53.337Z,22.64
2023-07-21T15:09:20.407Z,22.68
2023-07-21T15:11:46.786Z,20.34
2023-07-21T15:14:13.167Z,20.95
2023-07-21T15:16:39.599Z,20.63
2023-07-21T15:19:06.021Z,21.27
2023-07-21T15:21:32.435Z,20.73
2023-07-21T15:23:58.872Z,21.41
2023-07-21T15:26:26.442Z,21.64
2023-07-21T15:28:53.090Z,21.83
2023-07-21T15:31:19.579Z,20.66
2023-07-21T15:33:46.612Z,20.64
2023-07-21T15:36:15.682Z,20.49
2023-07-21T15:38:44.331Z,21.66
2023-07-21T15:41:10.748Z,21.46
2023-07-21T15:43:37.181Z,22.09
2023-07-21T15:46:03.906Z,22.12
2023-07-21T15:48:31.551Z,22.05
2023-07-21T15:50:57.969Z,21.45
2023-07-21T15:53:24.676Z,21.63
2023-07-21T15:55:51.066Z,21.52
2023-07-21T15:58:19.630Z,21.59
2023-07-21T16:00:46.760Z,21.17
2023-07-21T16:03:13.274Z,21.05
2023-07-21T16:05:39.739Z,20.74
2023-07-21T16:08:06.307Z,20.93
2023-07-21T16:10:32.759Z,21.33
2023-07-21T16:12:59.177Z,21.14
2023-07-21T16:15:26.689Z,20.98
2023-07-21T16:17:53.246Z,20.71
2023-07-21T16:20:19.863Z,20.06
2023-07-21T16:22:46.279Z,20.91
2023-07-21T16:25:12.829Z,21.82
2023-07-21T16:27:39.304Z,21.98
2023-07-21T16:30:06.999Z,20.90
2023-07-21T16:32:33.501Z,22.10
2023-07-21T16:35:00.029Z,22.09
2023-07-21T16:37:26.653Z,20.86
2023-07-21T16:39:56.067Z,21.05
2023-07-21T16:42:22.603Z,19.89
2023-07-21T16:44:49.016Z,20.61
2023-07-21T16:47:15.406Z,20.28
2023-07-21T16:49:41.923Z,20.86
2023-07-21T16:52:08.583Z,20.73
2023-07-21T16:54:35.014Z,20.30
2023-07-21T16:57:01.538Z,21.05
2023-07-21T16:59:28.292Z,20.36
2023-07-21T17:01:54.785Z,19.68
2023-07-21T17:04:21.338Z,19.89
2023-07-21T17:06:47.861Z,20.19
2023-07-21T17:09:16.309Z,20.05
2023-07-21T17:11:42.809Z,20.60
2023-07-21T17:14:10.032Z,19.91
2023-07-21T17:16:36.695Z,18.83
2023-07-21T17:19:03.885Z,19.59
2023-07-21T17:21:30.384Z,19.81
2023-07-21T17:23:56.853Z,19.80
2023-07-21T17:26:23.300Z,19.93
2023-07-21T17:28:49.743Z,18.87
2023-07-21T17:31:16.292Z,17.78
2023-07-21T17:33:42.736Z,17.64
2023-07-21T17:36:09.447Z,17.73
2023-07-21T17:38:35.873Z,17.58
2023-07-21T17:41:03.662Z,18.37
2023-07-21T17:43:32.680Z,18.45
2023-07-21T17:46:01.597Z,18.76
2023-07-21T17:48:28.258Z,18.83
2023-07-21T17:50:56.256Z,18.84
2023-07-21T17:53:23.640Z,18.38
2023-07-21T17:55:50.072Z,18.64
2023-07-21T17:58:17.345Z,18.44
2023-07-21T18:00:44.478Z,18.42
2023-07-21T18:03:12.404Z,19.21
2023-07-21T18:05:39.368Z,19.11
2023-07-21T18:08:06.977Z,19.01
2023-07-21T18:10:34.820Z,19.21
2023-07-21T18:13:01.441Z,18.91
2023-07-21T18:15:34.859Z,18.54
2023-07-21T18:18:01.583Z,18.57
2023-07-21T18:20:28.162Z,19.56
2023-07-21T18:22:56.905Z,18.86
2023-07-21T18:25:23.282Z,19.09
2023-07-21T18:27:49.730Z,18.57
2023-07-21T18:30:16.247Z,18.98
2023-07-21T18:32:42.880Z,18.33
2023-07-21T18:35:09.765Z,18.35
2023-07-21T18:37:36.140Z,17.65
2023-07-21T18:40:10.744Z,17.63
2023-07-21T18:42:37.479Z,19.05
2023-07-21T18:45:04.255Z,19.07
2023-07-21T18:47:30.706Z,19.28
2023-07-21T18:49:57.199Z,19.09
2023-07-21T18:52:23.562Z,18.78
2023-07-21T18:54:50.089Z,19.07
2023-07-21T18:57:16.544Z,18.44
2023-07-21T18:59:42.936Z,18.90
2023-07-21T19:02:09.419Z,18.27
2023-07-21T19:04:35.947Z,18.28
2023-07-21T19:07:02.329Z,18.85
2023-07-21T19:09:31.606Z,18.70
2023-07-21T19:11:57.992Z,18.21
2023-07-21T19:14:24.457Z,18.24
2023-07-21T19:16:50.964Z,17.14
2023-07-21T19:19:17.499Z,18.26
2023-07-21T19:21:43.891Z,18.86
2023-07-21T19:24:10.517Z,19.14
2023-07-21T19:26:36.940Z,19.07
2023-07-21T19:29:04.237Z,19.20
2023-07-21T19:31:33.989Z,18.19
2023-07-21T19:34:01.885Z,18.94
2023-07-21T19:36:28.766Z,17.42
2023-07-21T19:38:55.200Z,18.59
2023-07-21T19:41:21.754Z,18.41
2023-07-21T19:43:48.330Z,19.07
2023-07-21T19:46:15.028Z,18.08
2023-07-21T19:48:41.916Z,18.86
2023-07-21T19:51:15.390Z,18.50
2023-07-21T19:53:42.561Z,18.21
2023-07-21T19:56:17.594Z,18.16
2023-07-21T19:58:45.281Z,17.73
2023-07-21T20:01:12.346Z,17.94
2023-07-21T20:03:41.666Z,17.59
2023-07-21T20:06:09.446Z,17.25
2023-07-21T20:08:36.410Z,18.05
2023-07-21T20:11:05.404Z,18.57
2023-07-21T20:13:32.595Z,18.33
2023-07-21T20:15:59.317Z,17.52
2023-07-21T20:18:26.954Z,17.80
2023-07-21T20:20:54.321Z,18.23
2023-07-21T20:23:20.930Z,17.91
2023-07-21T20:25:47.613Z,18.56
2023-07-21T20:28:17.397Z,17.51
2023-07-21T20:30:45.419Z,16.33
2023-07-21T20:33:13.517Z,16.77
2023-07-21T20:35:44.579Z,17.59
2023-07-21T20:38:11.570Z,18.13
2023-07-21T20:40:38.585Z,18.01
2023-07-21T20:43:05.172Z,18.32
2023-07-21T20:45:36.260Z,18.22
2023-07-21T20:48:02.750Z,18.11
2023-07-21T20:50:36.390Z,17.28
2023-07-21T20:53:04.652Z,17.02
2023-07-21T20:55:31.258Z,16.90
2023-07-21T20:57:58.470Z,17.57
2023-07-21T21:00:25.202Z,16.92
2023-07-21T21:02:51.868Z,17.14
2023-07-21T21:05:19.265Z,18.00
2023-07-21T21:07:47.185Z,17.75
2023-07-21T21:10:15.254Z,18.12
2023-07-21T21:12:41.692Z,17.80
2023-07-21T21:15:08.632Z,17.76
2023-07-21T21:17:35.290Z,16.78
2023-07-21T21:20:01.813Z,17.71
2023-07-21T21:22:28.470Z,17.28
2023-07-21T21:24:54.981Z,17.87
2023-07-21T21:27:21.407Z,18.01
2023-07-21T21:29:47.765Z,16.49
2023-07-21T21:32:14.226Z,17.44
2023-07-21T21:34:40.645Z,17.34
2023-07-21T21:37:07.554Z,17.27
2023-07-21T21:39:34.123Z,16.38
2023-07-21T21:42:00.682Z,16.15
2023-07-21T21:44:27.088Z,16.43
2023-07-21T21:46:53.540Z,16.97
2023-07-21T21:49:20.002Z,16.54
2023-07-21T21:51:46.390Z,15.83
2023-07-21T21:54:12.917Z,17.12
2023-07-21T21:56:39.345Z,17.24
2023-07-21T21:59:05.715Z,16.93
2023-07-21T22:01:32.179Z,17.85
2023-07-21T22:03:58.881Z,17.85
2023-07-21T22:06:25.520Z,17.51
2023-07-21T22:08:52.218Z,17.13
2023-07-21T22:11:18.848Z,17.41
2023-07-21T22:13:45.222Z,16.92
2023-07-21T22:16:11.724Z,17.52
2023-07-21T22:18:39.175Z,17.48
2023-07-21T22:21:05.609Z,16.85
2023-07-21T22:23:32.151Z,17.55
2023-07-21T22:26:04.591Z,16.93
2023-07-21T22:28:30.974Z,16.37
2023-07-21T22:30:57.473Z,16.59
2023-07-21T22:33:23.943Z,16.47
2023-07-21T22:35:50.544Z,17.32
2023-07-21T22:38:16.956Z,17.51
2023-07-21T22:40:44.412Z,17.65
2023-07-21T22:43:10.840Z,17.59
2023-07-21T22:45:38.229Z,16.30
2023-07-21T22:48:05.391Z,16.79
2023-07-21T22:50:31.883Z,17.54
2023-07-21T22:52:59.659Z,17.65
2023-07-21T22:55:26.610Z,16.68
2023-07-21T22:57:53.173Z,17.37
2023-07-21T23:00:20.132Z,16.35
2023-07-21T23:02:46.660Z,16.01
2023-07-21T23:05:13.474Z,16.41
2023-07-21T23:07:40.154Z,17.39
2023-07-21T23:10:07.270Z,16.67
2023-07-21T23:12:34.788Z,17.60
2023-07-21T23:15:01.260Z,17.34
2023-07-21T23:17:27.932Z,16.37
2023-07-21T23:19:54.429Z,16.39
2023-07-21T23:22:20.940Z,15.96
2023-07-21T23:24:47.618Z,17.12
2023-07-21T23:27:14.297Z,16.82
2023-07-21T23:29:40.889Z,15.49
2023-07-21T23:32:08.277Z,15.85
2023-07-21T23:34:34.838Z,15.50
2023-07-21T23:37:01.256Z,15.35
2023-07-21T23:39:28.726Z,15.19
2023-07-21T23:41:55.157Z,16.06
2023-07-21T23:44:21.616Z,15.36
2023-07-21T23:46:48.043Z,15.62
2023-07-21T23:49:14.442Z,16.26
2023-07-21T23:51:40.828Z,16.30
2023-07-21T23:54:07.309Z,16.11
2023-07-21T23:56:33.850Z,15.97
2023-07-21T23:59:00.227Z,16.08
